Bonaria — ICUS — position and weather

sailwx.info

Track history (hours):
 
Tides and Currents Weather Stations Pressure Air Temp Water Temp Dewpoint Dewpoint Depression Visibility Wind Speed Wind Dir Waves Ship Positions

Bonaria

Last reported at 2014-Nov-27 22:29 UTC. Time now 2014-Nov-29 01:16 UTC.
Position N 41°00' E 009°46'.

Length 213 m; draft 6.8 m.

Type: Ship. MMSI: 247322400.

Date/timePositionNaut miles runAvg speedWind from/ knotsBaromVisibWave heightAir tempDewpointWater temp
2014-Nov-27 22:29N 41°00' E 009°46'1212.7
2014-Nov-27 21:33N 40°55' E 009°32'0 0.0
2014-Nov-27 20:31N 40°55' E 009°32'0 0.0
2014-Nov-27 18:33N 40°55' E 009°32'0 0.0
2014-Nov-27 17:23N 40°55' E 009°32'0 0.0
2014-Nov-27 16:32N 40°55' E 009°32'0 0.0
2014-Nov-27 15:28N 40°55' E 009°32'0 0.0
2014-Nov-27 14:04N 40°55' E 009°32'0 0.0
2014-Nov-27 13:31N 40°55' E 009°32'0 0.0
2014-Nov-27 12:21N 40°55' E 009°32'0 0.0
2014-Nov-27 11:33N 40°55' E 009°32'0 0.0
2014-Nov-27 10:23N 40°55' E 009°32'0 0.0
2014-Nov-27 09:20N 40°55' E 009°32'0 0.0
2014-Nov-27 08:31N 40°55' E 009°32'0 0.0
2014-Nov-27 07:25N 40°55' E 009°32'0 0.0
2014-Nov-27 06:31N 40°55' E 009°32'0 0.0
2014-Nov-27 05:18N 40°55' E 009°32'2 2.2
2014-Nov-27 04:33N 40°55' E 009°34'1515.3
2014-Nov-27 03:33N 41°03' E 009°51'4 0.1
2014-Nov-25 22:33N 41°01' E 009°47'1313.4
2014-Nov-25 21:33N 40°55' E 009°32'0 0.0
2014-Nov-25 20:33N 40°55' E 009°32'0 0.0
2014-Nov-25 19:33N 40°55' E 009°32'0 0.0
2014-Nov-25 18:33N 40°55' E 009°32'0 0.0
2014-Nov-25 17:33N 40°55' E 009°32'0 0.0
2014-Nov-25 13:33N 40°55' E 009°32'0 0.0
2014-Nov-25 12:33N 40°55' E 009°32'0 0.0
2014-Nov-25 11:33N 40°55' E 009°32'0 0.0
2014-Nov-25 10:33N 40°55' E 009°32'0 0.0
2014-Nov-25 09:33N 40°55' E 009°32'0 0.0
2014-Nov-25 08:33N 40°55' E 009°32'0 0.0
2014-Nov-25 07:33N 40°55' E 009°32'0 0.0
2014-Nov-25 06:33N 40°55' E 009°32'0 0.0
2014-Nov-25 05:33N 40°55' E 009°32'2 2.0
2014-Nov-25 04:33N 40°55' E 009°34'1515.0
2014-Nov-25 03:33N 41°03' E 009°51'5 0.2
2014-Nov-23 22:33N 41°00' E 009°46'1212.0
2014-Nov-23 21:33N 40°55' E 009°32'0 0.0
2014-Nov-23 19:31N 40°55' E 009°32'0 0.0
2014-Nov-23 18:31N 40°55' E 009°32'0 0.0
2014-Nov-23 17:31N 40°55' E 009°32'0 0.0
2014-Nov-23 16:24N 40°55' E 009°32'0 0.0
2014-Nov-23 14:32N 40°55' E 009°32'0 0.0
2014-Nov-23 13:05N 40°55' E 009°32'0 0.0
2014-Nov-23 12:31N 40°55' E 009°32'0 0.0
2014-Nov-23 11:25N 40°55' E 009°32'0 0.0
2014-Nov-23 09:33N 40°55' E 009°32'0 0.0
2014-Nov-23 07:32N 40°55' E 009°32'0 0.0
2014-Nov-23 06:34N 40°55' E 009°32'0 0.0
2014-Nov-23 05:33N 40°55' E 009°32'9 8.7
2014-Nov-23 04:33N 40°59' E 009°42'3 0.1
2014-Nov-21 22:30N 40°60' E 009°45'1112.1
2014-Nov-21 21:33N 40°55' E 009°32'0 0.0
2014-Nov-21 20:31N 40°55' E 009°32'0 0.0
2014-Nov-21 19:27N 40°55' E 009°32'0 0.0
2014-Nov-21 17:32N 40°55' E 009°32'0 0.0
2014-Nov-21 15:31N 40°55' E 009°32'0 0.0
2014-Nov-21 14:19N 40°55' E 009°32'0 0.0
2014-Nov-21 12:33N 40°55' E 009°32'0 0.0
2014-Nov-21 10:32N 40°55' E 009°32'0 0.0
2014-Nov-21 09:17N 40°55' E 009°32'0 0.0
2014-Nov-21 08:31N 40°55' E 009°32'0 0.0
2014-Nov-21 07:31N 40°55' E 009°32'0 0.0
2014-Nov-21 05:33N 40°55' E 009°32'8 8.5
2014-Nov-21 04:33N 40°59' E 009°42'0 0.0
2014-Nov-19 22:14N 40°58' E 009°42'812.3
2014-Nov-19 21:33N 40°55' E 009°32'0 0.0
2014-Nov-19 20:09N 40°55' E 009°32'0 0.0
2014-Nov-19 19:33N 40°55' E 009°32'0 0.0
2014-Nov-19 18:26N 40°55' E 009°32'0 0.0
2014-Nov-19 16:31N 40°55' E 009°32'0 0.0
2014-Nov-19 15:04N 40°55' E 009°32'0 0.0
2014-Nov-19 14:33N 40°55' E 009°32'0 0.0
2014-Nov-19 13:21N 40°55' E 009°32'0 0.0
2014-Nov-19 12:33N 40°55' E 009°32'0 0.0
2014-Nov-19 11:29N 40°55' E 009°32'0 0.0
2014-Nov-19 09:31N 40°55' E 009°32'0 0.0
2014-Nov-19 08:16N 40°55' E 009°32'0 0.0
2014-Nov-19 07:34N 40°55' E 009°32'0 0.0
2014-Nov-19 06:33N 40°55' E 009°32'1 0.7
2014-Nov-19 04:33N 40°55' E 009°33'10 0.3
2014-Nov-17 22:31N 41°00' E 009°46'  
Track history (hours):
 
Tides and Currents Weather Stations Pressure Air Temp Water Temp Dewpoint Dewpoint Depression Visibility Wind Speed Wind Dir Waves Ship Positions

Bonaria

Last reported at 2014-Nov-27 22:29 UTC. Time now 2014-Nov-29 01:16 UTC.
Position N 41°00' E 009°46'.

Length 213 m; draft 6.8 m.

Type: Ship. MMSI: 247322400.

Date/timePositionNaut miles runAvg speedWind from/ knotsBaromVisibWave heightAir tempDewpointWater temp
2014-Nov-27 22:29N 41°00' E 009°46'1212.7
2014-Nov-27 21:33N 40°55' E 009°32'0 0.0
2014-Nov-27 20:31N 40°55' E 009°32'0 0.0
2014-Nov-27 18:33N 40°55' E 009°32'0 0.0
2014-Nov-27 17:23N 40°55' E 009°32'0 0.0
2014-Nov-27 16:32N 40°55' E 009°32'0 0.0
2014-Nov-27 15:28N 40°55' E 009°32'0 0.0
2014-Nov-27 14:04N 40°55' E 009°32'0 0.0
2014-Nov-27 13:31N 40°55' E 009°32'0 0.0
2014-Nov-27 12:21N 40°55' E 009°32'0 0.0
2014-Nov-27 11:33N 40°55' E 009°32'0 0.0
2014-Nov-27 10:23N 40°55' E 009°32'0 0.0
2014-Nov-27 09:20N 40°55' E 009°32'0 0.0
2014-Nov-27 08:31N 40°55' E 009°32'0 0.0
2014-Nov-27 07:25N 40°55' E 009°32'0 0.0
2014-Nov-27 06:31N 40°55' E 009°32'0 0.0
2014-Nov-27 05:18N 40°55' E 009°32'2 2.2
2014-Nov-27 04:33N 40°55' E 009°34'1515.3
2014-Nov-27 03:33N 41°03' E 009°51'4 0.1
2014-Nov-25 22:33N 41°01' E 009°47'1313.4
2014-Nov-25 21:33N 40°55' E 009°32'0 0.0
2014-Nov-25 20:33N 40°55' E 009°32'0 0.0
2014-Nov-25 19:33N 40°55' E 009°32'0 0.0
2014-Nov-25 18:33N 40°55' E 009°32'0 0.0
2014-Nov-25 17:33N 40°55' E 009°32'0 0.0
2014-Nov-25 13:33N 40°55' E 009°32'0 0.0
2014-Nov-25 12:33N 40°55' E 009°32'0 0.0
2014-Nov-25 11:33N 40°55' E 009°32'0 0.0
2014-Nov-25 10:33N 40°55' E 009°32'0 0.0
2014-Nov-25 09:33N 40°55' E 009°32'0 0.0
2014-Nov-25 08:33N 40°55' E 009°32'0 0.0
2014-Nov-25 07:33N 40°55' E 009°32'0 0.0
2014-Nov-25 06:33N 40°55' E 009°32'0 0.0
2014-Nov-25 05:33N 40°55' E 009°32'2 2.0
2014-Nov-25 04:33N 40°55' E 009°34'1515.0
2014-Nov-25 03:33N 41°03' E 009°51'5 0.2
2014-Nov-23 22:33N 41°00' E 009°46'1212.0
2014-Nov-23 21:33N 40°55' E 009°32'0 0.0
2014-Nov-23 19:31N 40°55' E 009°32'0 0.0
2014-Nov-23 18:31N 40°55' E 009°32'0 0.0
2014-Nov-23 17:31N 40°55' E 009°32'0 0.0
2014-Nov-23 16:24N 40°55' E 009°32'0 0.0
2014-Nov-23 14:32N 40°55' E 009°32'0 0.0
2014-Nov-23 13:05N 40°55' E 009°32'0 0.0
2014-Nov-23 12:31N 40°55' E 009°32'0 0.0
2014-Nov-23 11:25N 40°55' E 009°32'0 0.0
2014-Nov-23 09:33N 40°55' E 009°32'0 0.0
2014-Nov-23 07:32N 40°55' E 009°32'0 0.0
2014-Nov-23 06:34N 40°55' E 009°32'0 0.0
2014-Nov-23 05:33N 40°55' E 009°32'9 8.7
2014-Nov-23 04:33N 40°59' E 009°42'3 0.1
2014-Nov-21 22:30N 40°60' E 009°45'1112.1
2014-Nov-21 21:33N 40°55' E 009°32'0 0.0
2014-Nov-21 20:31N 40°55' E 009°32'0 0.0
2014-Nov-21 19:27N 40°55' E 009°32'0 0.0
2014-Nov-21 17:32N 40°55' E 009°32'0 0.0
2014-Nov-21 15:31N 40°55' E 009°32'0 0.0
2014-Nov-21 14:19N 40°55' E 009°32'0 0.0
2014-Nov-21 12:33N 40°55' E 009°32'0 0.0
2014-Nov-21 10:32N 40°55' E 009°32'0 0.0
2014-Nov-21 09:17N 40°55' E 009°32'0 0.0
2014-Nov-21 08:31N 40°55' E 009°32'0 0.0
2014-Nov-21 07:31N 40°55' E 009°32'0 0.0
2014-Nov-21 05:33N 40°55' E 009°32'8 8.5
2014-Nov-21 04:33N 40°59' E 009°42'0 0.0
2014-Nov-19 22:14N 40°58' E 009°42'812.3
2014-Nov-19 21:33N 40°55' E 009°32'0 0.0
2014-Nov-19 20:09N 40°55' E 009°32'0 0.0
2014-Nov-19 19:33N 40°55' E 009°32'0 0.0
2014-Nov-19 18:26N 40°55' E 009°32'0 0.0
2014-Nov-19 16:31N 40°55' E 009°32'0 0.0
2014-Nov-19 15:04N 40°55' E 009°32'0 0.0
2014-Nov-19 14:33N 40°55' E 009°32'0 0.0
2014-Nov-19 13:21N 40°55' E 009°32'0 0.0
2014-Nov-19 12:33N 40°55' E 009°32'0 0.0
2014-Nov-19 11:29N 40°55' E 009°32'0 0.0
2014-Nov-19 09:31N 40°55' E 009°32'0 0.0
2014-Nov-19 08:16N 40°55' E 009°32'0 0.0
2014-Nov-19 07:34N 40°55' E 009°32'0 0.0
2014-Nov-19 06:33N 40°55' E 009°32'1 0.7
2014-Nov-19 04:33N 40°55' E 009°33'10 0.3
2014-Nov-17 22:31N 41°00' E 009°46'  

Dump ship's entire track history